createdAt,value
2023-03-06T09:31:40.758Z,140956.03
2023-03-06T09:36:56.616Z,141018.75
2023-03-06T09:42:00.809Z,141058.16
2023-03-06T09:47:18.982Z,141051.97
2023-03-06T09:52:31.479Z,141023.66
2023-03-06T09:57:37.375Z,141021.22
2023-03-06T10:02:45.339Z,141034.78
2023-03-06T10:07:54.309Z,141086.47
2023-03-06T10:13:03.636Z,141093.84
2023-03-06T10:18:07.106Z,141108.59
2023-03-06T10:23:20.829Z,141072.91
2023-03-06T10:28:29.126Z,141108.59
2023-03-06T10:33:36.415Z,141114.78
2023-03-06T10:38:42.780Z,141095.06
2023-03-06T10:43:47.113Z,141061.84
2023-03-06T10:48:58.593Z,141051.97
2023-03-06T10:54:05.141Z,141111.03
2023-03-06T10:59:09.696Z,141074.13
2023-03-06T11:04:24.224Z,141093.84
2023-03-06T11:09:29.066Z,141177.50
2023-03-06T11:14:32.569Z,141338.88
2023-03-06T11:19:36.058Z,141296.97
2023-03-06T11:24:43.704Z,141303.09
2023-03-06T11:29:51.390Z,141446.03
2023-03-06T11:34:59.578Z,141248.91
2023-03-06T11:40:07.654Z,141159.03
2023-03-06T11:45:25.298Z,141255.09
2023-03-06T11:50:32.158Z,141301.88
2023-03-06T11:55:50.696Z,141258.78
2023-03-06T12:01:00.197Z,141333.91
2023-03-06T12:06:05.311Z,141289.56
2023-03-06T12:11:13.260Z,141279.69
2023-03-06T12:16:32.833Z,141278.47
2023-03-06T12:21:44.090Z,141311.75
2023-03-06T12:27:01.745Z,141299.41
2023-03-06T12:32:24.169Z,141268.63
2023-03-06T12:37:34.299Z,141288.34
2023-03-06T12:42:49.975Z,141145.50
2023-03-06T12:47:56.251Z,141293.28
2023-03-06T12:53:01.818Z,141211.97
2023-03-06T12:58:20.163Z,141207.06
2023-03-06T13:03:27.606Z,141244.00
2023-03-06T13:08:45.990Z,141163.94
2023-03-06T13:13:52.065Z,141240.31
2023-03-06T13:19:02.078Z,141264.94
2023-03-06T13:24:06.777Z,141264.94
2023-03-06T13:29:24.969Z,141177.50
2023-03-06T13:34:36.277Z,141178.75
2023-03-06T13:39:54.459Z,141146.72
2023-03-06T13:44:58.583Z,141207.06
2023-03-06T13:50:12.653Z,141264.94
2023-03-06T13:55:25.288Z,141071.69
2023-03-06T14:00:32.740Z,140984.31
2023-03-06T14:05:44.248Z,141080.28
2023-03-06T14:10:48.533Z,141055.66
2023-03-06T14:15:54.776Z,141155.34
2023-03-06T14:21:01.200Z,141150.41
2023-03-06T14:26:07.570Z,141189.81
2023-03-06T14:31:14.960Z,141177.50
2023-03-06T14:36:21.041Z,141103.66
2023-03-06T14:41:25.569Z,141055.66
2023-03-06T14:46:31.299Z,140985.53
2023-03-06T14:51:38.347Z,140823.19
2023-03-06T14:56:42.925Z,140858.81
2023-03-06T15:01:48.676Z,140779.00
2023-03-06T15:06:53.819Z,140781.41
2023-03-06T15:11:58.734Z,140847.78
2023-03-06T15:17:26.360Z,140892.06
2023-03-06T15:22:32.754Z,140876.06
2023-03-06T15:27:38.703Z,140926.50
2023-03-06T15:32:42.883Z,140810.91
2023-03-06T15:37:49.652Z,140851.47
2023-03-06T15:42:53.199Z,140884.66
2023-03-06T15:47:57.431Z,140884.66
2023-03-06T15:53:02.359Z,140883.44
2023-03-06T15:58:09.283Z,140865.00
2023-03-06T16:03:13.675Z,140823.19
2023-03-06T16:08:18.596Z,140801.03
2023-03-06T16:13:25.543Z,140797.34
2023-03-06T16:18:31.125Z,140766.66
2023-03-06T16:23:39.266Z,140734.72
2023-03-06T16:28:42.675Z,140704.00
2023-03-06T16:33:46.171Z,140651.16
2023-03-06T16:38:51.268Z,140620.44
2023-03-06T16:43:54.610Z,140579.88
2023-03-06T16:48:57.925Z,140535.69
2023-03-06T16:54:05.265Z,140484.09
2023-03-06T16:59:08.666Z,140435.03
2023-03-06T17:04:12.064Z,140399.44
2023-03-06T17:09:19.765Z,140368.75
2023-03-06T17:14:23.073Z,140179.88
2023-03-06T17:19:29.251Z,140296.34
2023-03-06T17:24:37.162Z,140273.03
2023-03-06T17:29:40.418Z,140260.78
2023-03-06T17:34:43.944Z,140247.31
2023-03-06T17:39:49.793Z,140237.47
2023-03-06T17:44:53.380Z,140228.88
2023-03-06T17:49:56.705Z,140219.09
2023-03-06T17:55:04.459Z,140174.97
2023-03-06T18:00:08.742Z,140155.34
2023-03-06T18:05:20.819Z,140143.09
2023-03-06T18:10:25.698Z,140116.13
2023-03-06T18:15:31.503Z,140112.44
2023-03-06T18:20:34.836Z,140095.25
2023-03-06T18:25:39.725Z,140083.03
2023-03-06T18:30:43.462Z,140060.94
2023-03-06T18:35:49.394Z,140046.22
2023-03-06T18:40:54.291Z,140022.91
2023-03-06T18:45:57.854Z,140003.34
2023-03-06T18:51:04.643Z,139983.72
2023-03-06T18:56:10.829Z,139981.28
2023-03-06T19:01:14.448Z,139962.88
2023-03-06T19:06:19.295Z,139956.78
2023-03-06T19:11:29.646Z,139943.31
2023-03-06T19:16:35.073Z,139911.47
2023-03-06T19:21:39.015Z,139906.59
2023-03-06T19:26:44.425Z,139901.69
2023-03-06T19:31:52.393Z,139893.13
2023-03-06T19:36:55.892Z,139885.78
2023-03-06T19:42:01.287Z,139873.50
2023-03-06T19:47:05.551Z,139867.41
2023-03-06T19:52:08.971Z,139872.28
2023-03-06T19:57:16.392Z,139861.28
2023-03-06T20:02:26.475Z,139841.69
2023-03-06T20:07:34.030Z,139847.78
2023-03-06T20:12:38.964Z,139847.78
2023-03-06T20:17:42.411Z,139840.47
2023-03-06T20:22:46.070Z,139831.91
2023-03-06T20:27:50.982Z,139833.13
2023-03-06T20:32:58.328Z,139824.50
2023-03-06T20:38:02.102Z,139822.06
2023-03-06T20:43:07.231Z,139811.06
2023-03-06T20:48:11.126Z,139818.41
2023-03-06T20:53:14.798Z,139822.06
2023-03-06T20:58:21.400Z,139829.44
2023-03-06T21:03:25.447Z,139819.63
2023-03-06T21:08:30.597Z,139808.63
2023-03-06T21:13:35.470Z,139804.97
2023-03-06T21:18:39.960Z,139806.19
2023-03-06T21:23:43.737Z,139800.03
2023-03-06T21:28:48.703Z,139793.91
2023-03-06T21:33:52.621Z,139801.28
2023-03-06T21:38:56.484Z,139803.72
2023-03-06T21:44:02.807Z,139813.50
2023-03-06T21:49:06.334Z,139807.41
2023-03-06T21:54:09.900Z,139801.28
2023-03-06T21:59:15.333Z,139795.13
2023-03-06T22:04:21.614Z,139793.91
2023-03-06T22:09:25.326Z,139792.69
2023-03-06T22:14:30.184Z,139779.25
2023-03-06T22:19:34.275Z,139773.13
2023-03-06T22:24:37.773Z,139755.97
2023-03-06T22:29:44.587Z,139746.19
2023-03-06T22:34:48.138Z,139742.47
2023-03-06T22:39:51.581Z,139732.72
2023-03-06T22:44:58.616Z,139721.72
2023-03-06T22:50:02.025Z,139725.38
2023-03-06T22:55:05.800Z,139721.72
